Time,TemperatureF,DewpointF,PressureIn,WindDirection,WindDirectionDegrees,WindSpeedMPH,WindSpeedGustMPH,Humidity,HourlyPrecipIn,Conditions,Clouds,dailyrainin,SoftwareType,DateUTC
2013-04-15 00:00:00,49.0,37.0,29.46,NNW,338,4.0,8.0,63,0.00,,,0.00,VWS V14.01,2013-04-15 07:00:00,
2013-04-15 00:04:00,49.9,44.0,29.42,NW,311,2.0,18.0,80,0.00,,,0.00,VWS V14.01,2013-04-15 07:04:00,
2013-04-15 00:30:00,48.9,36.9,29.46,NNW,338,5.0,9.0,63,0.00,,,0.00,VWS V14.01,2013-04-15 07:30:00,
2013-04-15 00:50:00,49.4,42.8,29.43,NNW,332,6.0,18.0,78,0.00,,,0.00,VWS V14.01,2013-04-15 07:50:00,
2013-04-15 00:55:00,49.2,42.6,29.43,NNW,328,5.0,18.0,78,0.00,,,0.00,VWS V14.01,2013-04-15 07:55:00,
2013-04-15 01:00:00,49.1,42.5,29.43,NNW,348,2.0,18.0,78,0.00,,,0.00,VWS V14.01,2013-04-15 08:00:00,
2013-04-15 01:05:00,48.8,42.3,29.43,NW,318,2.0,18.0,78,0.00,,,0.00,VWS V14.01,2013-04-15 08:05:00,
2013-04-15 01:11:00,48.7,42.2,29.43,NW,319,3.0,18.0,78,0.00,,,0.00,VWS V14.01,2013-04-15 08:11:00,
2013-04-15 01:16:00,48.4,41.9,29.43,NW,322,5.0,18.0,78,0.00,,,0.00,VWS V14.01,2013-04-15 08:16:00,
2013-04-15 01:21:00,48.5,42.0,29.43,NW,317,3.0,18.0,78,0.00,,,0.00,VWS V14.01,2013-04-15 08:21:00,
2013-04-15 01:26:00,48.2,41.7,29.43,NW,323,7.0,18.0,78,0.00,,,0.00,VWS V14.01,2013-04-15 08:26:00,
2013-04-15 01:30:00,48.3,35.9,29.46,NNW,338,5.0,9.0,62,0.00,,,0.00,VWS V14.01,2013-04-15 08:30:00,
2013-04-15 01:31:00,47.9,41.4,29.43,NW,325,6.0,18.0,78,0.00,,,0.00,VWS V14.01,2013-04-15 08:31:00,
2013-04-15 01:36:00,47.7,41.2,29.43,NW,321,7.0,18.0,78,0.00,,,0.00,VWS V14.01,2013-04-15 08:36:00,
2013-04-15 01:41:00,47.4,40.9,29.43,NW,310,2.0,18.0,78,0.00,,,0.00,VWS V14.01,2013-04-15 08:41:00,
2013-04-15 01:46:00,47.1,40.9,29.43,NNW,332,5.0,18.0,79,0.00,,,0.00,VWS V14.01,2013-04-15 08:46:00,
2013-04-15 01:51:00,47.0,40.8,29.43,NW,314,5.0,18.0,79,0.00,,,0.00,VWS V14.01,2013-04-15 08:51:00,
2013-04-15 01:56:00,46.8,40.6,29.42,NNW,340,4.0,18.0,79,0.00,,,0.00,VWS V14.01,2013-04-15 08:56:00,
2013-04-15 02:00:00,48.2,36.2,29.46,NNW,338,3.0,8.0,63,0.00,,,0.00,VWS V14.01,2013-04-15 09:00:00,
2013-04-15 02:01:00,46.7,40.9,29.42,NW,324,3.0,18.0,80,0.00,,,0.00,VWS V14.01,2013-04-15 09:01:00,
2013-04-15 02:06:00,46.5,40.3,29.42,NNW,328,5.0,18.0,79,0.00,,,0.00,VWS V14.01,2013-04-15 09:06:00,
2013-04-15 02:11:00,46.4,40.6,29.42,NNW,332,3.0,18.0,80,0.00,,,0.00,VWS V14.01,2013-04-15 09:11:00,
2013-04-15 02:16:00,46.3,40.2,29.42,NNW,332,3.0,18.0,79,0.00,,,0.00,VWS V14.01,2013-04-15 09:16:00,
2013-04-15 02:21:00,46.0,39.9,29.42,NNW,332,6.0,18.0,79,0.00,,,0.00,VWS V14.01,2013-04-15 09:21:00,
2013-04-15 02:26:00,45.8,39.7,29.42,NNW,327,5.0,18.0,79,0.00,,,0.00,VWS V14.01,2013-04-15 09:26:00,
2013-04-15 02:30:00,48.0,35.6,29.46,NNW,338,5.0,14.0,62,0.00,,,0.00,VWS V14.01,2013-04-15 09:30:00,
2013-04-15 02:31:00,45.5,39.4,29.42,NNW,327,5.0,18.0,79,0.00,,,0.00,VWS V14.01,2013-04-15 09:31:00,
2013-04-15 02:36:00,45.4,39.6,29.43,NW,322,5.0,18.0,80,0.00,,,0.00,VWS V14.01,2013-04-15 09:36:00,
2013-04-15 02:46:00,45.4,39.6,29.43,NNW,330,7.0,18.0,80,0.00,,,0.00,VWS V14.01,2013-04-15 09:46:00,
2013-04-15 02:51:00,45.3,39.5,29.43,NW,309,4.0,18.0,80,0.00,,,0.00,VWS V14.01,2013-04-15 09:51:00,
2013-04-15 02:56:00,45.2,39.4,29.43,NW,324,6.0,18.0,80,0.00,,,0.00,VWS V14.01,2013-04-15 09:56:00,
2013-04-15 03:00:00,47.7,35.7,29.47,NNW,338,5.0,9.0,63,0.00,,,0.00,VWS V14.01,2013-04-15 10:00:00,
2013-04-15 03:01:00,45.2,39.4,29.43,NW,315,3.0,18.0,80,0.00,,,0.00,VWS V14.01,2013-04-15 10:01:00,
2013-04-15 03:06:00,45.1,39.3,29.43,North,351,3.0,18.0,80,0.00,,,0.00,VWS V14.01,2013-04-15 10:06:00,
2013-04-15 03:11:00,45.0,39.2,29.43,NNW,332,4.0,18.0,80,0.00,,,0.00,VWS V14.01,2013-04-15 10:11:00,
2013-04-15 03:16:00,45.0,39.2,29.43,NW,317,4.0,18.0,80,0.00,,,0.00,VWS V14.01,2013-04-15 10:16:00,
2013-04-15 03:21:00,45.0,39.2,29.43,NNW,335,5.0,18.0,80,0.00,,,0.00,VWS V14.01,2013-04-15 10:21:00,
2013-04-15 03:26:00,44.9,39.1,29.43,NNW,336,2.0,18.0,80,0.00,,,0.00,VWS V14.01,2013-04-15 10:26:00,
2013-04-15 03:30:00,47.3,35.0,29.47,NNW,338,3.0,6.0,62,0.00,,,0.00,VWS V14.01,2013-04-15 10:30:00,
2013-04-15 03:31:00,45.0,39.2,29.43,North,352,3.0,18.0,80,0.00,,,0.00,VWS V14.01,2013-04-15 10:31:00,
2013-04-15 03:36:00,44.8,39.0,29.42,NNW,329,4.0,18.0,80,0.00,,,0.00,VWS V14.01,2013-04-15 10:36:00,
2013-04-15 03:41:00,44.7,38.9,29.43,NNW,327,5.0,18.0,80,0.00,,,0.00,VWS V14.01,2013-04-15 10:41:00,
2013-04-15 03:46:00,44.7,38.9,29.43,NW,326,4.0,18.0,80,0.00,,,0.00,VWS V14.01,2013-04-15 10:46:00,
2013-04-15 03:51:00,44.7,38.9,29.43,NNW,337,3.0,18.0,80,0.00,,,0.00,VWS V14.01,2013-04-15 10:51:00,
2013-04-15 03:56:00,44.5,38.7,29.43,NNW,332,5.0,18.0,80,0.00,,,0.00,VWS V14.01,2013-04-15 10:56:00,
2013-04-15 04:00:00,46.8,36.1,29.47,NNW,338,4.0,10.0,66,0.00,,,0.00,VWS V14.01,2013-04-15 11:00:00,
2013-04-15 04:01:00,44.5,38.7,29.43,NNW,332,4.0,18.0,80,0.00,,,0.00,VWS V14.01,2013-04-15 11:01:00,
2013-04-15 04:12:00,44.4,38.6,29.43,NW,325,3.0,18.0,80,0.00,,,0.00,VWS V14.01,2013-04-15 11:12:00,
2013-04-15 04:17:00,44.4,38.6,29.44,NW,324,3.0,18.0,80,0.00,,,0.00,VWS V14.01,2013-04-15 11:17:00,
2013-04-15 04:22:00,44.3,38.5,29.44,NNW,337,3.0,18.0,80,0.00,,,0.00,VWS V14.01,2013-04-15 11:22:00,
2013-04-15 04:27:00,44.3,38.5,29.44,NNW,336,2.0,18.0,80,0.00,,,0.00,VWS V14.01,2013-04-15 11:27:00,
2013-04-15 04:30:00,46.1,35.0,29.47,NNW,338,5.0,10.0,65,0.00,,,0.00,VWS V14.01,2013-04-15 11:30:00,
2013-04-15 04:32:00,44.3,38.5,29.43,NNW,329,5.0,18.0,80,0.00,,,0.00,VWS V14.01,2013-04-15 11:32:00,
2013-04-15 04:37:00,44.4,38.6,29.43,NNW,332,3.0,18.0,80,0.00,,,0.00,VWS V14.01,2013-04-15 11:37:00,
2013-04-15 04:42:00,44.4,38.6,29.43,NNW,330,4.0,18.0,80,0.00,,,0.00,VWS V14.01,2013-04-15 11:42:00,
2013-04-15 04:47:00,44.4,38.6,29.43,NW,320,5.0,18.0,80,0.00,,,0.00,VWS V14.01,2013-04-15 11:47:00,
2013-04-15 04:52:00,44.5,38.7,29.42,NW,322,4.0,18.0,80,0.00,,,0.00,VWS V14.01,2013-04-15 11:52:00,
2013-04-15 04:57:00,44.4,38.6,29.42,NW,325,4.0,18.0,80,0.00,,,0.00,VWS V14.01,2013-04-15 11:57:00,
2013-04-15 05:00:00,46.4,34.9,29.47,NW,315,3.0,8.0,64,0.00,,,0.00,VWS V14.01,2013-04-15 12:00:00,
2013-04-15 05:02:00,44.4,38.6,29.43,NW,321,8.0,18.0,80,0.00,,,0.00,VWS V14.01,2013-04-15 12:02:00,
2013-04-15 05:07:00,44.4,38.6,29.43,NW,321,5.0,18.0,80,0.00,,,0.00,VWS V14.01,2013-04-15 12:07:00,
2013-04-15 05:12:00,44.4,38.6,29.43,NW,326,5.0,18.0,80,0.00,,,0.00,VWS V14.01,2013-04-15 12:12:00,
2013-04-15 05:17:00,44.4,38.6,29.43,NW,326,2.0,18.0,80,0.00,,,0.00,VWS V14.01,2013-04-15 12:17:00,
2013-04-15 05:22:00,44.4,38.6,29.43,NNW,336,5.0,18.0,80,0.00,,,0.00,VWS V14.01,2013-04-15 12:22:00,
2013-04-15 05:27:00,44.4,38.6,29.43,NNW,331,5.0,18.0,80,0.00,,,0.00,VWS V14.01,2013-04-15 12:27:00,
2013-04-15 05:30:00,46.1,35.0,29.47,North,0,4.0,15.0,65,0.00,,,0.00,VWS V14.01,2013-04-15 12:30:00,
2013-04-15 05:37:00,44.3,38.2,29.44,NW,323,7.0,18.0,79,0.00,,,0.00,VWS V14.01,2013-04-15 12:37:00,
2013-04-15 05:42:00,44.2,38.1,29.44,NW,324,9.0,18.0,79,0.00,,,0.00,VWS V14.01,2013-04-15 12:42:00,
2013-04-15 05:47:00,44.1,38.0,29.44,NNW,339,5.0,18.0,79,0.00,,,0.00,VWS V14.01,2013-04-15 12:47:00,
2013-04-15 05:52:00,44.1,37.7,29.44,North,356,4.0,18.0,78,0.00,,,0.00,VWS V14.01,2013-04-15 12:52:00,
2013-04-15 05:57:00,43.9,37.5,29.44,NNW,332,3.0,18.0,78,0.00,,,0.00,VWS V14.01,2013-04-15 12:57:00,
2013-04-15 06:00:00,45.7,35.4,29.47,NNW,338,5.0,10.0,67,0.00,,,0.00,VWS V14.01,2013-04-15 13:00:00,
2013-04-15 06:08:00,43.6,37.2,29.44,NNW,331,2.0,18.0,78,0.00,,,0.00,VWS V14.01,2013-04-15 13:08:00,
2013-04-15 06:13:00,43.5,37.1,29.45,North,356,2.0,18.0,78,0.00,,,0.00,VWS V14.01,2013-04-15 13:13:00,
2013-04-15 06:18:00,43.3,37.2,29.45,North,355,0.0,18.0,79,0.00,,,0.00,VWS V14.01,2013-04-15 13:18:00,
2013-04-15 06:23:00,43.3,36.9,29.45,NNW,346,3.0,18.0,78,0.00,,,0.00,VWS V14.01,2013-04-15 13:23:00,
2013-04-15 06:28:00,43.2,37.1,29.45,NNW,335,0.0,18.0,79,0.00,,,0.00,VWS V14.01,2013-04-15 13:28:00,
2013-04-15 06:30:00,45.5,34.4,29.46,NNW,338,5.0,12.0,65,0.00,,,0.00,VWS V14.01,2013-04-15 13:30:00,
2013-04-15 06:33:00,43.2,36.8,29.45,NNW,328,4.0,18.0,78,0.00,,,0.00,VWS V14.01,2013-04-15 13:33:00,
2013-04-15 06:43:00,43.1,36.7,29.46,NNW,339,2.0,18.0,78,0.00,,,0.00,VWS V14.01,2013-04-15 13:43:00,
2013-04-15 06:48:00,43.1,36.4,29.46,North,358,0.0,18.0,77,0.00,,,0.00,VWS V14.01,2013-04-15 13:48:00,
2013-04-15 06:58:00,43.2,36.8,29.46,North,359,4.0,18.0,78,0.00,,,0.00,VWS V14.01,2013-04-15 13:58:00,
2013-04-15 07:00:00,45.4,34.0,29.46,NW,315,4.0,8.0,64,0.00,,,0.00,VWS V14.01,2013-04-15 14:00:00,
2013-04-15 07:03:00,43.1,36.4,29.47,North,358,3.0,18.0,77,0.00,,,0.00,VWS V14.01,2013-04-15 14:03:00,
2013-04-15 07:08:00,43.1,36.1,29.47,North,358,1.0,18.0,76,0.00,,,0.00,VWS V14.01,2013-04-15 14:08:00,
2013-04-15 07:13:00,43.2,36.2,29.47,NNW,339,4.0,18.0,76,0.00,,,0.00,VWS V14.01,2013-04-15 14:13:00,
2013-04-15 07:18:00,43.4,36.3,29.47,NNW,340,3.0,18.0,76,0.00,,,0.00,VWS V14.01,2013-04-15 14:18:00,
2013-04-15 07:23:00,43.6,36.2,29.47,NNW,340,2.0,18.0,75,0.00,,,0.00,VWS V14.01,2013-04-15 14:23:00,
2013-04-15 07:28:00,43.9,36.2,29.47,NNW,337,1.0,18.0,74,0.00,,,0.00,VWS V14.01,2013-04-15 14:28:00,
2013-04-15 07:30:00,45.2,33.8,29.47,NNW,338,2.0,6.0,64,0.00,,,0.00,VWS V14.01,2013-04-15 14:30:00,
2013-04-15 07:33:00,44.0,35.9,29.47,NNW,344,2.0,18.0,73,0.00,,,0.00,VWS V14.01,2013-04-15 14:33:00,
2013-04-15 07:38:00,44.1,36.0,29.47,NNW,330,3.0,18.0,73,0.00,,,0.00,VWS V14.01,2013-04-15 14:38:00,
2013-04-15 07:43:00,44.2,36.1,29.48,North,358,0.0,18.0,73,0.00,,,0.00,VWS V14.01,2013-04-15 14:43:00,
2013-04-15 07:55:00,43.2,35.8,29.47,North,0,2.0,7.0,75,0.00,,,0.00,VWS V14.01,2013-04-15 14:55:00,
2013-04-15 08:00:00,44.7,32.9,29.47,NNW,338,2.0,6.0,63,0.00,,,0.00,VWS V14.01,2013-04-15 15:00:00,
2013-04-15 08:01:00,45.0,35.8,29.47,NNW,340,9.0,10.0,70,0.00,,,0.00,VWS V14.01,2013-04-15 15:01:00,
2013-04-15 08:06:00,45.1,35.9,29.48,NNW,335,2.0,10.0,70,0.00,,,0.00,VWS V14.01,2013-04-15 15:06:00,
2013-04-15 08:11:00,45.4,35.8,29.47,North,353,4.0,10.0,69,0.00,,,0.00,VWS V14.01,2013-04-15 15:11:00,
2013-04-15 08:16:00,45.8,36.2,29.48,North,355,4.0,10.0,69,0.00,,,0.00,VWS V14.01,2013-04-15 15:16:00,
2013-04-15 08:21:00,45.9,36.0,29.48,NW,326,5.0,10.0,68,0.00,,,0.00,VWS V14.01,2013-04-15 15:21:00,
2013-04-15 08:26:00,46.2,35.9,29.48,NNW,333,7.0,10.0,67,0.00,,,0.00,VWS V14.01,2013-04-15 15:26:00,
2013-04-15 08:30:00,45.3,33.1,29.47,NNW,338,3.0,6.0,62,0.00,,,0.00,VWS V14.01,2013-04-15 15:30:00,
2013-04-15 08:31:00,46.6,35.9,29.48,NNW,338,3.0,10.0,66,0.00,,,0.00,VWS V14.01,2013-04-15 15:31:00,
2013-04-15 08:36:00,47.1,36.0,29.48,North,358,0.0,10.0,65,0.00,,,0.00,VWS V14.01,2013-04-15 15:36:00,
2013-04-15 08:41:00,47.4,36.2,29.48,NNW,345,2.0,10.0,65,0.00,,,0.00,VWS V14.01,2013-04-15 15:41:00,
2013-04-15 08:46:00,47.9,35.9,29.48,NNW,342,3.0,10.0,63,0.00,,,0.00,VWS V14.01,2013-04-15 15:46:00,
2013-04-15 08:51:00,48.1,36.1,29.48,North,349,4.0,10.0,63,0.00,,,0.00,VWS V14.01,2013-04-15 15:51:00,
2013-04-15 08:56:00,48.3,35.5,29.47,NNW,336,6.0,10.0,61,0.00,,,0.00,VWS V14.01,2013-04-15 15:56:00,
2013-04-15 09:00:00,46.4,33.3,29.49,NNW,338,3.0,9.0,60,0.00,,,0.00,VWS V14.01,2013-04-15 16:00:00,
2013-04-15 09:01:00,48.7,35.5,29.47,NNW,345,4.0,10.0,60,0.00,,,0.00,VWS V14.01,2013-04-15 16:01:00,
2013-04-15 09:11:00,48.8,34.7,29.47,NNW,339,5.0,10.0,58,0.00,,,0.00,VWS V14.01,2013-04-15 16:11:00,
2013-04-15 09:16:00,48.8,34.7,29.47,NW,322,3.0,10.0,58,0.00,,,0.00,VWS V14.01,2013-04-15 16:16:00,
2013-04-15 09:21:00,49.3,35.2,29.47,NNW,331,3.0,10.0,58,0.00,,,0.00,VWS V14.01,2013-04-15 16:21:00,
2013-04-15 09:26:00,49.6,35.0,29.47,NNW,336,3.0,10.0,57,0.00,,,0.00,VWS V14.01,2013-04-15 16:26:00,
2013-04-15 09:30:00,48.0,33.5,29.49,NNW,338,3.0,7.0,57,0.00,,,0.00,VWS V14.01,2013-04-15 16:30:00,
2013-04-15 09:37:00,49.9,34.8,29.47,NNW,338,5.0,10.0,56,0.00,,,0.00,VWS V14.01,2013-04-15 16:37:00,
2013-04-15 09:42:00,50.0,34.9,29.47,NW,324,3.0,10.0,56,0.00,,,0.00,VWS V14.01,2013-04-15 16:42:00,
2013-04-15 09:52:00,50.3,34.8,29.47,NNW,331,6.0,10.0,55,0.00,,,0.00,VWS V14.01,2013-04-15 16:52:00,
2013-04-15 09:57:00,50.4,34.9,29.48,NNW,337,4.0,10.0,55,0.00,,,0.00,VWS V14.01,2013-04-15 16:57:00,
2013-04-15 10:00:00,49.7,32.8,29.49,NNW,338,3.0,7.0,52,0.00,,,0.00,VWS V14.01,2013-04-15 17:00:00,
2013-04-15 10:02:00,50.7,34.7,29.47,NNW,330,6.0,10.0,54,0.00,,,0.00,VWS V14.01,2013-04-15 17:02:00,
2013-04-15 10:07:00,51.0,34.5,29.48,NNW,337,4.0,10.0,53,0.00,,,0.00,VWS V14.01,2013-04-15 17:07:00,
2013-04-15 10:12:00,51.2,34.7,29.48,NW,323,3.0,10.0,53,0.00,,,0.00,VWS V14.01,2013-04-15 17:12:00,
2013-04-15 10:17:00,51.7,35.1,29.48,NW,322,4.0,10.0,53,0.00,,,0.00,VWS V14.01,2013-04-15 17:17:00,
2013-04-15 10:22:00,52.1,35.5,29.48,NW,321,5.0,10.0,53,0.00,,,0.00,VWS V14.01,2013-04-15 17:22:00,
2013-04-15 10:27:00,52.4,35.3,29.48,NW,318,7.0,10.0,52,0.00,,,0.00,VWS V14.01,2013-04-15 17:27:00,
2013-04-15 10:30:00,51.5,32.5,29.50,NW,315,4.0,8.0,48,0.00,,,0.00,VWS V14.01,2013-04-15 17:30:00,
2013-04-15 10:32:00,52.1,35.0,29.48,NW,323,4.0,10.0,52,0.00,,,0.00,VWS V14.01,2013-04-15 17:32:00,
2013-04-15 10:37:00,52.4,35.3,29.48,NNW,339,4.0,11.0,52,0.00,,,0.00,VWS V14.01,2013-04-15 17:37:00,
2013-04-15 10:42:00,52.5,35.4,29.48,NW,321,7.0,11.0,52,0.00,,,0.00,VWS V14.01,2013-04-15 17:42:00,
2013-04-15 10:47:00,52.7,35.6,29.48,NNW,334,8.0,11.0,52,0.00,,,0.00,VWS V14.01,2013-04-15 17:47:00,
2013-04-15 10:52:00,52.8,35.2,29.48,NW,323,9.0,11.0,51,0.00,,,0.00,VWS V14.01,2013-04-15 17:52:00,
2013-04-15 10:57:00,53.0,34.9,29.48,NW,323,3.0,11.0,50,0.00,,,0.00,VWS V14.01,2013-04-15 17:57:00,
2013-04-15 11:00:00,53.4,32.0,29.50,NW,315,5.0,9.0,44,0.00,,,0.00,VWS V14.01,2013-04-15 18:00:00,
2013-04-15 11:02:00,53.6,35.9,29.48,NNW,328,6.0,11.0,51,0.00,,,0.00,VWS V14.01,2013-04-15 18:02:00,
2013-04-15 11:07:00,54.2,36.0,29.48,NNW,335,3.0,11.0,50,0.00,,,0.00,VWS V14.01,2013-04-15 18:07:00,
2013-04-15 11:12:00,54.7,35.4,29.48,NW,321,5.0,11.0,48,0.00,,,0.00,VWS V14.01,2013-04-15 18:12:00,
2013-04-15 11:17:00,54.9,36.1,29.48,NW,322,4.0,11.0,49,0.00,,,0.00,VWS V14.01,2013-04-15 18:17:00,
2013-04-15 11:22:00,55.1,35.8,29.48,NW,326,4.0,11.0,48,0.00,,,0.00,VWS V14.01,2013-04-15 18:22:00,
2013-04-15 11:30:00,55.3,32.0,29.49,NW,315,4.0,8.0,41,0.00,,,0.00,VWS V14.01,2013-04-15 18:30:00,
2013-04-15 11:33:00,54.8,35.5,29.48,NW,321,6.0,11.0,48,0.00,,,0.00,VWS V14.01,2013-04-15 18:33:00,
2013-04-15 11:38:00,54.8,35.0,29.48,NW,326,10.0,11.0,47,0.00,,,0.00,VWS V14.01,2013-04-15 18:38:00,
2013-04-15 11:43:00,54.9,35.6,29.47,NNW,327,6.0,11.0,48,0.00,,,0.00,VWS V14.01,2013-04-15 18:43:00,
2013-04-15 11:48:00,55.5,36.2,29.48,WNW,299,7.0,11.0,48,0.00,,,0.00,VWS V14.01,2013-04-15 18:48:00,
2013-04-15 11:53:00,55.6,35.2,29.48,NW,321,8.0,12.0,46,0.00,,,0.00,VWS V14.01,2013-04-15 18:53:00,
2013-04-15 11:58:00,55.1,35.2,29.48,NW,322,2.0,14.0,47,0.00,,,0.00,VWS V14.01,2013-04-15 18:58:00,
2013-04-15 12:00:00,58.3,32.2,29.49,NNW,338,2.0,6.0,37,0.00,,,0.00,VWS V14.01,2013-04-15 19:00:00,
2013-04-15 12:03:00,55.7,35.8,29.48,NNW,328,7.0,14.0,47,0.00,,,0.00,VWS V14.01,2013-04-15 19:03:00,
2013-04-15 12:08:00,56.1,36.7,29.48,NNW,329,6.0,14.0,48,0.00,,,0.00,VWS V14.01,2013-04-15 19:08:00,
2013-04-15 12:13:00,56.5,36.5,29.47,NNW,327,5.0,14.0,47,0.00,,,0.00,VWS V14.01,2013-04-15 19:13:00,
2013-04-15 12:18:00,56.2,35.7,29.48,NW,321,6.0,14.0,46,0.00,,,0.00,VWS V14.01,2013-04-15 19:18:00,
2013-04-15 12:23:00,56.3,35.8,29.48,NW,323,10.0,14.0,46,0.00,,,0.00,VWS V14.01,2013-04-15 19:23:00,
2013-04-15 12:28:00,56.7,36.7,29.48,NNW,327,5.0,14.0,47,0.00,,,0.00,VWS V14.01,2013-04-15 19:28:00,
2013-04-15 12:30:00,59.9,31.5,29.49,NNW,338,4.0,9.0,34,0.00,,,0.00,VWS V14.01,2013-04-15 19:30:00,
2013-04-15 12:33:00,56.5,36.0,29.48,NW,324,6.0,14.0,46,0.00,,,0.00,VWS V14.01,2013-04-15 19:33:00,
2013-04-15 12:38:00,56.3,35.8,29.48,NW,326,5.0,14.0,46,0.00,,,0.00,VWS V14.01,2013-04-15 19:38:00,
2013-04-15 12:53:00,56.9,36.3,29.48,NW,312,8.0,14.0,46,0.00,,,0.00,VWS V14.01,2013-04-15 19:53:00,
2013-04-15 12:58:00,56.5,35.4,29.48,NW,321,9.0,14.0,45,0.00,,,0.00,VWS V14.01,2013-04-15 19:58:00,
2013-04-15 13:00:00,60.4,31.9,29.48,NNW,338,6.0,11.0,34,0.00,,,0.00,VWS V14.01,2013-04-15 20:00:00,
2013-04-15 13:03:00,56.5,35.4,29.47,North,354,4.0,14.0,45,0.00,,,0.00,VWS V14.01,2013-04-15 20:03:00,
2013-04-15 13:08:00,56.3,35.2,29.48,WNW,302,11.0,14.0,45,0.00,,,0.00,VWS V14.01,2013-04-15 20:08:00,
2013-04-15 13:13:00,56.0,35.5,29.48,NNW,333,7.0,14.0,46,0.00,,,0.00,VWS V14.01,2013-04-15 20:13:00,
2013-04-15 13:18:00,56.1,35.1,29.47,NW,324,11.0,14.0,45,0.00,,,0.00,VWS V14.01,2013-04-15 20:18:00,
2013-04-15 13:23:00,55.9,34.9,29.47,WNW,289,7.0,17.0,45,0.00,,,0.00,VWS V14.01,2013-04-15 20:23:00,
2013-04-15 13:28:00,55.8,35.3,29.47,NW,321,10.0,18.0,46,0.00,,,0.00,VWS V14.01,2013-04-15 20:28:00,
2013-04-15 13:30:00,62.2,32.0,29.48,NW,315,5.0,9.0,32,0.00,,,0.00,VWS V14.01,2013-04-15 20:30:00,
2013-04-15 13:33:00,55.8,34.8,29.47,NW,322,13.0,18.0,45,0.00,,,0.00,VWS V14.01,2013-04-15 20:33:00,
2013-04-15 13:38:00,55.3,34.9,29.47,NW,320,9.0,18.0,46,0.00,,,0.00,VWS V14.01,2013-04-15 20:38:00,
2013-04-15 13:43:00,55.2,34.8,29.47,North,9,9.0,18.0,46,0.00,,,0.00,VWS V14.01,2013-04-15 20:43:00,
2013-04-15 13:48:00,54.8,35.5,29.47,NW,320,8.0,18.0,48,0.00,,,0.00,VWS V14.01,2013-04-15 20:48:00,
2013-04-15 13:53:00,54.9,35.6,29.46,NW,324,11.0,18.0,48,0.00,,,0.00,VWS V14.01,2013-04-15 20:53:00,
2013-04-15 13:58:00,54.8,35.5,29.46,NNW,328,11.0,19.0,48,0.00,,,0.00,VWS V14.01,2013-04-15 20:58:00,
2013-04-15 14:00:00,63.5,32.3,29.47,NW,315,6.0,15.0,31,0.00,,,0.00,VWS V14.01,2013-04-15 21:00:00,
2013-04-15 14:03:00,54.4,35.1,29.46,NW,322,15.0,19.0,48,0.00,,,0.00,VWS V14.01,2013-04-15 21:03:00,
2013-04-15 14:08:00,54.2,35.0,29.47,NW,323,10.0,20.0,48,0.00,,,0.00,VWS V14.01,2013-04-15 21:08:00,
2013-04-15 14:13:00,54.2,35.5,29.45,NW,318,10.0,23.0,49,0.00,,,0.00,VWS V14.01,2013-04-15 21:13:00,
2013-04-15 14:18:00,54.3,35.0,29.45,NW,326,18.0,23.0,48,0.00,,,0.00,VWS V14.01,2013-04-15 21:18:00,
2013-04-15 14:23:00,54.4,35.1,29.46,NW,314,7.0,23.0,48,0.00,,,0.00,VWS V14.01,2013-04-15 21:23:00,
2013-04-15 14:28:00,54.2,34.4,29.45,NW,325,11.0,24.0,47,0.00,,,0.00,VWS V14.01,2013-04-15 21:28:00,
2013-04-15 14:30:00,64.4,34.7,29.47,NNW,338,6.0,11.0,33,0.00,,,0.00,VWS V14.01,2013-04-15 21:30:00,
2013-04-15 14:33:00,54.3,34.5,29.45,NW,317,17.0,24.0,47,0.00,,,0.00,VWS V14.01,2013-04-15 21:33:00,
2013-04-15 14:38:00,54.3,34.0,29.45,NW,313,16.0,24.0,46,0.00,,,0.00,VWS V14.01,2013-04-15 21:38:00,
2013-04-15 14:43:00,54.1,33.8,29.46,WNW,299,7.0,24.0,46,0.00,,,0.00,VWS V14.01,2013-04-15 21:43:00,
2013-04-15 14:48:00,54.2,33.9,29.46,NW,317,10.0,24.0,46,0.00,,,0.00,VWS V14.01,2013-04-15 21:48:00,
2013-04-15 14:53:00,54.7,33.8,29.46,NW,311,11.0,24.0,45,0.00,,,0.00,VWS V14.01,2013-04-15 21:53:00,
2013-04-15 14:58:00,54.8,33.9,29.45,NW,318,13.0,24.0,45,0.00,,,0.00,VWS V14.01,2013-04-15 21:58:00,
2013-04-15 15:00:00,62.2,34.2,29.46,NW,315,8.0,13.0,35,0.00,,,0.00,VWS V14.01,2013-04-15 22:00:00,
2013-04-15 15:03:00,54.7,33.8,29.45,NW,323,13.0,25.0,45,0.00,,,0.00,VWS V14.01,2013-04-15 22:03:00,
2013-04-15 15:08:00,54.7,33.8,29.45,NW,312,11.0,25.0,45,0.00,,,0.00,VWS V14.01,2013-04-15 22:08:00,
2013-04-15 15:13:00,54.8,33.3,29.45,NW,325,11.0,25.0,44,0.00,,,0.00,VWS V14.01,2013-04-15 22:13:00,
2013-04-15 15:18:00,54.7,32.7,29.45,NW,319,12.0,25.0,43,0.00,,,0.00,VWS V14.01,2013-04-15 22:18:00,
2013-04-15 15:23:00,54.5,33.6,29.45,NNW,345,12.0,25.0,45,0.00,,,0.00,VWS V14.01,2013-04-15 22:23:00,
2013-04-15 15:28:00,55.0,34.1,29.45,NW,315,5.0,25.0,45,0.00,,,0.00,VWS V14.01,2013-04-15 22:28:00,
2013-04-15 15:30:00,61.4,34.2,29.46,NW,315,8.0,15.0,36,0.00,,,0.00,VWS V14.01,2013-04-15 22:30:00,
2013-04-15 15:33:00,55.1,33.0,29.45,NW,326,11.0,25.0,43,0.00,,,0.00,VWS V14.01,2013-04-15 22:33:00,
2013-04-15 15:38:00,54.8,32.8,29.46,NNW,335,8.0,25.0,43,0.00,,,0.00,VWS V14.01,2013-04-15 22:38:00,
2013-04-15 15:43:00,54.7,33.2,29.46,NNW,336,7.0,25.0,44,0.00,,,0.00,VWS V14.01,2013-04-15 22:43:00,
2013-04-15 15:48:00,54.8,33.3,29.46,NW,325,5.0,25.0,44,0.00,,,0.00,VWS V14.01,2013-04-15 22:48:00,
2013-04-15 15:53:00,54.8,32.8,29.45,NW,320,9.0,25.0,43,0.00,,,0.00,VWS V14.01,2013-04-15 22:53:00,
2013-04-15 15:59:00,54.2,32.8,29.44,NW,321,8.0,25.0,44,0.00,,,0.00,VWS V14.01,2013-04-15 22:59:00,
2013-04-15 16:00:00,61.9,35.4,29.46,NW,315,7.0,12.0,37,0.00,,,0.00,VWS V14.01,2013-04-15 23:00:00,
2013-04-15 16:04:00,54.1,32.7,29.44,West,272,6.0,25.0,44,0.00,,,0.00,VWS V14.01,2013-04-15 23:04:00,
2013-04-15 16:09:00,54.0,33.2,29.44,NW,313,8.0,25.0,45,0.00,,,0.00,VWS V14.01,2013-04-15 23:09:00,
2013-04-15 16:14:00,53.9,32.5,29.44,NW,320,13.0,25.0,44,0.00,,,0.00,VWS V14.01,2013-04-15 23:14:00,
2013-04-15 16:19:00,53.6,31.7,29.43,NW,312,10.0,25.0,43,0.00,,,0.00,VWS V14.01,2013-04-15 23:19:00,
2013-04-15 16:24:00,53.5,31.6,29.43,NW,308,8.0,25.0,43,0.00,,,0.00,VWS V14.01,2013-04-15 23:24:00,
2013-04-15 16:29:00,53.3,30.8,29.44,NW,317,10.0,25.0,42,0.00,,,0.00,VWS V14.01,2013-04-15 23:29:00,
2013-04-15 16:30:00,61.9,34.0,29.44,NNW,338,5.0,11.0,35,0.00,,,0.00,VWS V14.01,2013-04-15 23:30:00,
2013-04-15 16:34:00,53.2,31.3,29.43,NNW,328,5.0,25.0,43,0.00,,,0.00,VWS V14.01,2013-04-15 23:34:00,
2013-04-15 16:39:00,53.4,31.5,29.44,NNW,328,6.0,25.0,43,0.00,,,0.00,VWS V14.01,2013-04-15 23:39:00,
2013-04-15 16:44:00,53.3,31.4,29.44,NNW,336,14.0,25.0,43,0.00,,,0.00,VWS V14.01,2013-04-15 23:44:00,
2013-04-15 16:49:00,53.1,31.8,29.43,NNW,327,11.0,25.0,44,0.00,,,0.00,VWS V14.01,2013-04-15 23:49:00,
2013-04-15 16:54:00,52.9,31.6,29.43,NNW,339,18.0,25.0,44,0.00,,,0.00,VWS V14.01,2013-04-15 23:54:00,
2013-04-15 16:59:00,52.8,32.6,29.43,NW,320,6.0,25.0,46,0.00,,,0.00,VWS V14.01,2013-04-15 23:59:00,
2013-04-15 17:00:00,61.7,35.9,29.45,NNW,338,8.0,17.0,38,0.00,,,0.00,VWS V14.01,2013-04-16 00:00:00,
2013-04-15 17:04:00,52.7,33.0,29.43,NW,307,6.0,25.0,47,0.00,,,0.00,VWS V14.01,2013-04-16 00:04:00,
2013-04-15 17:09:00,52.6,33.5,29.43,NW,326,10.0,25.0,48,0.00,,,0.00,VWS V14.01,2013-04-16 00:09:00,
2013-04-15 17:14:00,52.6,34.0,29.44,NNW,331,6.0,25.0,49,0.00,,,0.00,VWS V14.01,2013-04-16 00:14:00,
2013-04-15 17:19:00,52.7,34.1,29.43,NW,308,10.0,25.0,49,0.00,,,0.00,VWS V14.01,2013-04-16 00:19:00,
2013-04-15 17:24:00,52.5,34.4,29.43,NW,325,9.0,25.0,50,0.00,,,0.00,VWS V14.01,2013-04-16 00:24:00,
2013-04-15 17:29:00,52.0,34.5,29.43,NNW,336,5.0,25.0,51,0.00,,,0.00,VWS V14.01,2013-04-16 00:29:00,
2013-04-15 17:30:00,60.4,36.0,29.44,NW,315,7.0,14.0,40,0.00,,,0.00,VWS V14.01,2013-04-16 00:30:00,
2013-04-15 17:34:00,51.6,34.6,29.42,WNW,293,6.0,25.0,52,0.00,,,0.00,VWS V14.01,2013-04-16 00:34:00,
2013-04-15 17:39:00,51.2,34.7,29.43,NW,325,8.0,25.0,53,0.00,,,0.00,VWS V14.01,2013-04-16 00:39:00,
2013-04-15 17:44:00,50.9,34.4,29.43,WNW,297,6.0,25.0,53,0.00,,,0.00,VWS V14.01,2013-04-16 00:44:00,
2013-04-15 17:49:00,50.8,34.8,29.42,NW,323,14.0,25.0,54,0.00,,,0.00,VWS V14.01,2013-04-16 00:49:00,
2013-04-15 17:54:00,50.6,34.6,29.43,NW,324,9.0,25.0,54,0.00,,,0.00,VWS V14.01,2013-04-16 00:54:00,
2013-04-15 17:59:00,50.6,34.6,29.42,NW,321,10.0,25.0,54,0.00,,,0.00,VWS V14.01,2013-04-16 00:59:00,
2013-04-15 18:00:00,59.9,35.5,29.43,NNW,338,6.0,16.0,40,0.00,,,0.00,VWS V14.01,2013-04-16 01:00:00,
2013-04-15 18:04:00,50.5,34.5,29.43,NW,324,6.0,25.0,54,0.00,,,0.00,VWS V14.01,2013-04-16 01:04:00,
2013-04-15 18:09:00,50.4,34.9,29.42,NW,306,6.0,25.0,55,0.00,,,0.00,VWS V14.01,2013-04-16 01:09:00,
2013-04-15 18:14:00,50.0,34.5,29.42,NW,308,9.0,25.0,55,0.00,,,0.00,VWS V14.01,2013-04-16 01:14:00,
2013-04-15 18:19:00,49.8,34.8,29.43,North,350,4.0,25.0,56,0.00,,,0.00,VWS V14.01,2013-04-16 01:19:00,
2013-04-15 18:24:00,49.5,34.9,29.43,NW,321,10.0,25.0,57,0.00,,,0.00,VWS V14.01,2013-04-16 01:24:00,
2013-04-15 18:29:00,49.5,34.9,29.43,NW,322,11.0,25.0,57,0.00,,,0.00,VWS V14.01,2013-04-16 01:29:00,
2013-04-15 18:30:00,58.5,35.5,29.43,NW,315,7.0,15.0,42,0.00,,,0.00,VWS V14.01,2013-04-16 01:30:00,
2013-04-15 18:34:00,49.2,35.1,29.43,NW,325,7.0,25.0,58,0.00,,,0.00,VWS V14.01,2013-04-16 01:34:00,
2013-04-15 18:39:00,48.8,34.7,29.44,NW,322,8.0,25.0,58,0.00,,,0.00,VWS V14.01,2013-04-16 01:39:00,
2013-04-15 18:44:00,48.4,34.8,29.44,NW,309,6.0,25.0,59,0.00,,,0.00,VWS V14.01,2013-04-16 01:44:00,
2013-04-15 18:49:00,48.2,35.0,29.44,NW,315,2.0,25.0,60,0.00,,,0.00,VWS V14.01,2013-04-16 01:49:00,
2013-04-15 18:54:00,47.8,34.6,29.44,NW,321,7.0,25.0,60,0.00,,,0.00,VWS V14.01,2013-04-16 01:54:00,
2013-04-15 18:59:00,47.7,34.9,29.44,NW,308,4.0,25.0,61,0.00,,,0.00,VWS V14.01,2013-04-16 01:59:00,
2013-04-15 19:00:00,56.3,36.9,29.43,NW,315,9.0,18.0,48,0.00,,,0.00,VWS V14.01,2013-04-16 02:00:00,
2013-04-15 19:04:00,47.5,34.7,29.44,NW,323,8.0,25.0,61,0.00,,,0.00,VWS V14.01,2013-04-16 02:04:00,
2013-04-15 19:09:00,47.3,35.0,29.44,NNW,341,7.0,25.0,62,0.00,,,0.00,VWS V14.01,2013-04-16 02:09:00,
2013-04-15 19:14:00,47.2,34.9,29.44,NW,323,7.0,25.0,62,0.00,,,0.00,VWS V14.01,2013-04-16 02:14:00,
2013-04-15 19:19:00,47.1,34.8,29.45,NW,324,5.0,25.0,62,0.00,,,0.00,VWS V14.01,2013-04-16 02:19:00,
2013-04-15 19:24:00,46.8,34.9,29.45,NW,325,6.0,25.0,63,0.00,,,0.00,VWS V14.01,2013-04-16 02:24:00,
2013-04-15 19:29:00,46.7,34.8,29.45,NW,324,9.0,25.0,63,0.00,,,0.00,VWS V14.01,2013-04-16 02:29:00,
2013-04-15 19:30:00,55.7,38.8,29.43,NW,315,8.0,14.0,53,0.00,,,0.00,VWS V14.01,2013-04-16 02:30:00,
2013-04-15 19:34:00,46.5,34.6,29.44,NW,317,9.0,25.0,63,0.00,,,0.00,VWS V14.01,2013-04-16 02:34:00,
2013-04-15 19:39:00,46.3,34.8,29.44,NW,316,4.0,25.0,64,0.00,,,0.00,VWS V14.01,2013-04-16 02:39:00,
2013-04-15 19:44:00,46.1,35.0,29.45,NNW,339,8.0,25.0,65,0.00,,,0.00,VWS V14.01,2013-04-16 02:44:00,
2013-04-15 19:49:00,46.0,34.9,29.45,NNW,337,5.0,25.0,65,0.00,,,0.00,VWS V14.01,2013-04-16 02:49:00,
2013-04-15 19:54:00,45.9,34.8,29.45,NNW,328,5.0,25.0,65,0.00,,,0.00,VWS V14.01,2013-04-16 02:54:00,
2013-04-15 19:59:00,45.8,34.7,29.45,NNW,332,7.0,25.0,65,0.00,,,0.00,VWS V14.01,2013-04-16 02:59:00,
2013-04-15 20:00:00,55.1,39.7,29.43,NW,315,9.0,17.0,56,0.00,,,0.00,VWS V14.01,2013-04-16 03:00:00,
2013-04-15 20:04:00,45.7,35.0,29.44,NW,322,8.0,25.0,66,0.00,,,0.00,VWS V14.01,2013-04-16 03:04:00,
2013-04-15 20:09:00,45.7,35.0,29.44,NW,322,11.0,25.0,66,0.00,,,0.00,VWS V14.01,2013-04-16 03:09:00,
2013-04-15 20:14:00,45.5,34.8,29.45,NW,321,5.0,25.0,66,0.00,,,0.00,VWS V14.01,2013-04-16 03:14:00,
2013-04-15 20:19:00,45.6,34.9,29.45,NW,314,2.0,25.0,66,0.00,,,0.00,VWS V14.01,2013-04-16 03:19:00,
2013-04-15 20:24:00,45.6,35.3,29.46,NNW,333,8.0,25.0,67,0.00,,,0.00,VWS V14.01,2013-04-16 03:24:00,
2013-04-15 20:29:00,45.6,35.3,29.46,NNW,329,6.0,25.0,67,0.00,,,0.00,VWS V14.01,2013-04-16 03:29:00,
2013-04-15 20:30:00,53.2,39.7,29.44,NW,315,8.0,18.0,60,0.00,,,0.00,VWS V14.01,2013-04-16 03:30:00,
2013-04-15 20:34:00,45.5,35.2,29.47,NW,326,6.0,25.0,67,0.00,,,0.00,VWS V14.01,2013-04-16 03:34:00,
2013-04-15 20:39:00,45.4,35.1,29.47,NW,318,7.0,25.0,67,0.00,,,0.00,VWS V14.01,2013-04-16 03:39:00,
2013-04-15 20:44:00,45.4,35.5,29.47,NW,316,10.0,25.0,68,0.00,,,0.00,VWS V14.01,2013-04-16 03:44:00,
2013-04-15 20:49:00,45.5,35.2,29.47,NW,325,9.0,25.0,67,0.00,,,0.00,VWS V14.01,2013-04-16 03:49:00,
2013-04-15 20:54:00,45.4,35.1,29.47,NW,323,5.0,25.0,67,0.00,,,0.00,VWS V14.01,2013-04-16 03:54:00,
2013-04-15 20:59:00,45.5,35.6,29.48,NW,324,10.0,25.0,68,0.00,,,0.00,VWS V14.01,2013-04-16 03:59:00,
2013-04-15 21:00:00,51.3,39.5,29.44,NW,315,6.0,13.0,64,0.00,,,0.00,VWS V14.01,2013-04-16 04:00:00,
2013-04-15 21:04:00,45.3,35.4,29.48,NW,316,3.0,25.0,68,0.00,,,0.00,VWS V14.01,2013-04-16 04:04:00,
2013-04-15 21:09:00,45.4,35.5,29.48,NW,319,4.0,25.0,68,0.00,,,0.00,VWS V14.01,2013-04-16 04:09:00,
2013-04-15 21:14:00,45.3,35.4,29.48,NNW,327,8.0,25.0,68,0.00,,,0.00,VWS V14.01,2013-04-16 04:14:00,
2013-04-15 21:19:00,45.3,35.4,29.48,NW,325,7.0,25.0,68,0.00,,,0.00,VWS V14.01,2013-04-16 04:19:00,
2013-04-15 21:24:00,45.1,35.2,29.49,NW,324,4.0,25.0,68,0.00,,,0.00,VWS V14.01,2013-04-16 04:24:00,
2013-04-15 21:29:00,45.2,35.3,29.48,NW,323,7.0,25.0,68,0.00,,,0.00,VWS V14.01,2013-04-16 04:29:00,
2013-04-15 21:30:00,50.1,39.6,29.44,NW,315,6.0,11.0,67,0.00,,,0.00,VWS V14.01,2013-04-16 04:30:00,
2013-04-15 21:34:00,45.2,35.3,29.50,NW,322,4.0,25.0,68,0.00,,,0.00,VWS V14.01,2013-04-16 04:34:00,
2013-04-15 21:39:00,45.1,35.2,29.49,NNW,328,5.0,25.0,68,0.00,,,0.00,VWS V14.01,2013-04-16 04:39:00,
2013-04-15 21:44:00,45.2,35.3,29.50,NW,325,8.0,25.0,68,0.00,,,0.00,VWS V14.01,2013-04-16 04:44:00,
2013-04-15 21:49:00,45.2,35.3,29.50,NNW,332,7.0,25.0,68,0.00,,,0.00,VWS V14.01,2013-04-16 04:49:00,
2013-04-15 21:54:00,45.2,34.9,29.51,NNW,335,4.0,25.0,67,0.00,,,0.00,VWS V14.01,2013-04-16 04:54:00,
2013-04-15 21:59:00,45.1,34.8,29.51,NNW,332,3.0,25.0,67,0.00,,,0.00,VWS V14.01,2013-04-16 04:59:00,
2013-04-15 22:00:00,49.6,40.2,29.44,NW,315,5.0,10.0,70,0.00,,,0.00,VWS V14.01,2013-04-16 05:00:00,
2013-04-15 22:04:00,45.2,34.9,29.51,NNW,343,4.0,25.0,67,0.00,,,0.00,VWS V14.01,2013-04-16 05:04:00,
2013-04-15 22:09:00,45.2,34.9,29.51,NW,322,5.0,25.0,67,0.00,,,0.00,VWS V14.01,2013-04-16 05:09:00,
2013-04-15 22:14:00,45.1,34.8,29.51,NNW,330,4.0,25.0,67,0.00,,,0.00,VWS V14.01,2013-04-16 05:14:00,
2013-04-15 22:19:00,45.2,34.9,29.51,NW,324,3.0,25.0,67,0.00,,,0.00,VWS V14.01,2013-04-16 05:19:00,
2013-04-15 22:24:00,45.1,34.8,29.51,North,351,3.0,25.0,67,0.00,,,0.00,VWS V14.01,2013-04-16 05:24:00,
2013-04-15 22:29:00,45.1,34.8,29.52,NNW,327,7.0,25.0,67,0.00,,,0.00,VWS V14.01,2013-04-16 05:29:00,
2013-04-15 22:30:00,49.0,40.7,29.44,NNW,338,3.0,9.0,73,0.00,,,0.00,VWS V14.01,2013-04-16 05:30:00,
2013-04-15 22:34:00,45.1,34.8,29.52,NNW,329,5.0,25.0,67,0.00,,,0.00,VWS V14.01,2013-04-16 05:34:00,
2013-04-15 22:39:00,45.1,34.8,29.52,NNW,329,2.0,25.0,67,0.00,,,0.00,VWS V14.01,2013-04-16 05:39:00,
2013-04-15 22:44:00,45.1,34.8,29.52,NNW,333,3.0,25.0,67,0.00,,,0.00,VWS V14.01,2013-04-16 05:44:00,
2013-04-15 22:49:00,45.0,34.7,29.52,NW,324,8.0,25.0,67,0.00,,,0.00,VWS V14.01,2013-04-16 05:49:00,
2013-04-15 22:54:00,45.1,34.4,29.52,NNW,336,6.0,25.0,66,0.00,,,0.00,VWS V14.01,2013-04-16 05:54:00,
2013-04-15 22:59:00,45.1,34.4,29.52,North,350,4.0,25.0,66,0.00,,,0.00,VWS V14.01,2013-04-16 05:59:00,
2013-04-15 23:00:00,49.0,41.4,29.44,NW,315,2.0,4.0,75,0.00,,,0.00,VWS V14.01,2013-04-16 06:00:00,
2013-04-15 23:04:00,44.8,34.5,29.52,NNW,334,3.0,25.0,67,0.00,,,0.00,VWS V14.01,2013-04-16 06:04:00,
2013-04-15 23:09:00,44.7,34.0,29.52,NNW,330,4.0,25.0,66,0.00,,,0.00,VWS V14.01,2013-04-16 06:09:00,
2013-04-15 23:14:00,44.8,34.2,29.52,NNW,346,5.0,25.0,66,0.00,,,0.00,VWS V14.01,2013-04-16 06:14:00,
2013-04-15 23:19:00,44.7,34.0,29.52,NW,326,3.0,25.0,66,0.00,,,0.00,VWS V14.01,2013-04-16 06:19:00,
2013-04-15 23:24:00,44.7,34.0,29.52,NW,326,3.0,25.0,66,0.00,,,0.00,VWS V14.01,2013-04-16 06:24:00,
2013-04-15 23:29:00,44.5,33.9,29.52,NNW,335,5.0,25.0,66,0.00,,,0.00,VWS V14.01,2013-04-16 06:29:00,
2013-04-15 23:30:00,49.4,42.2,29.44,NW,315,2.0,5.0,76,0.00,,,0.00,VWS V14.01,2013-04-16 06:30:00,
2013-04-15 23:34:00,44.5,33.9,29.53,NNW,339,6.0,25.0,66,0.00,,,0.00,VWS V14.01,2013-04-16 06:34:00,
2013-04-15 23:39:00,44.4,33.8,29.52,NW,326,3.0,25.0,66,0.00,,,0.00,VWS V14.01,2013-04-16 06:39:00,
2013-04-15 23:44:00,44.3,33.7,29.53,NNW,337,5.0,25.0,66,0.00,,,0.00,VWS V14.01,2013-04-16 06:44:00,
2013-04-15 23:49:00,44.2,33.6,29.53,NNW,334,4.0,25.0,66,0.00,,,0.00,VWS V14.01,2013-04-16 06:49:00,
2013-04-15 23:54:00,44.3,33.3,29.53,NNW,333,6.0,25.0,65,0.00,,,0.00,VWS V14.01,2013-04-16 06:54:00,
2013-04-15 23:59:00,44.3,33.3,29.53,NNW,328,7.0,25.0,65,0.00,,,0.00,VWS V14.01,2013-04-16 06:59:00,